createdAt,value
2023-09-04T00:02:24.646Z,2.90
2023-09-04T00:07:26.274Z,2.55
2023-09-04T00:12:27.954Z,2.58
2023-09-04T00:17:31.353Z,2.60
2023-09-04T00:22:33.079Z,2.80
2023-09-04T00:27:34.737Z,3.00
2023-09-04T00:32:36.393Z,3.10
2023-09-04T00:37:38.033Z,3.55
2023-09-04T00:42:39.727Z,3.78
2023-09-04T00:47:45.939Z,3.30
2023-09-04T00:52:48.527Z,3.25
2023-09-04T00:57:50.838Z,3.50
2023-09-04T01:02:52.894Z,3.60
2023-09-04T01:07:55.089Z,3.63
2023-09-04T01:13:05.150Z,3.28
2023-09-04T01:18:07.619Z,3.53
2023-09-04T01:23:09.875Z,3.10
2023-09-04T01:28:29.740Z,3.10
2023-09-04T01:33:37.433Z,4.22
2023-09-04T01:38:39.185Z,3.53
2023-09-04T01:43:41.014Z,3.72
2023-09-04T01:48:42.631Z,3.90
2023-09-04T01:53:44.295Z,3.67
2023-09-04T01:58:45.895Z,3.08
2023-09-04T02:03:58.123Z,3.70
2023-09-04T02:08:59.799Z,3.72
2023-09-04T02:14:01.454Z,3.65
2023-09-04T02:19:03.310Z,3.78
2023-09-04T02:24:05.102Z,4.03
2023-09-04T02:29:06.741Z,4.03
2023-09-04T02:34:08.369Z,4.07
2023-09-04T02:39:10.023Z,4.53
2023-09-04T02:44:11.613Z,4.75
2023-09-04T02:49:13.223Z,4.40
2023-09-04T02:54:14.809Z,3.70
2023-09-04T02:59:17.222Z,4.13
2023-09-04T03:04:18.848Z,4.00
2023-09-04T03:09:20.442Z,4.32
2023-09-04T03:14:22.187Z,4.68
2023-09-04T03:19:23.762Z,4.80
2023-09-04T03:24:25.844Z,4.82
2023-09-04T03:29:27.618Z,4.55
2023-09-04T03:34:30.682Z,4.43
2023-09-04T03:39:38.394Z,5.13
2023-09-04T03:44:40.112Z,5.00
2023-09-04T03:49:41.722Z,4.68
2023-09-04T03:54:43.320Z,4.53
2023-09-04T03:59:44.985Z,4.30
2023-09-04T04:04:46.598Z,4.28
2023-09-04T04:09:48.947Z,4.40
2023-09-04T04:14:54.612Z,4.25
2023-09-04T04:19:56.737Z,4.68
2023-09-04T04:24:58.335Z,4.90
2023-09-04T04:30:00.205Z,5.13
2023-09-04T04:35:01.836Z,5.10
2023-09-04T04:40:06.285Z,5.03
2023-09-04T04:45:08.600Z,4.40
2023-09-04T04:50:10.968Z,4.13
2023-09-04T04:55:12.912Z,4.70
2023-09-04T05:00:14.832Z,4.78
2023-09-04T05:05:17.001Z,5.13
2023-09-04T05:10:18.674Z,5.10
2023-09-04T05:15:20.253Z,4.70
2023-09-04T05:20:22.478Z,5.35
2023-09-04T05:25:24.144Z,4.80
2023-09-04T05:30:25.766Z,4.63
2023-09-04T05:35:27.483Z,4.38
2023-09-04T05:40:29.120Z,4.63
2023-09-04T05:45:30.783Z,4.70
2023-09-04T05:50:32.371Z,4.85
2023-09-04T05:55:37.622Z,4.78
2023-09-04T06:00:39.568Z,4.90
2023-09-04T06:05:41.719Z,4.65
2023-09-04T06:10:43.358Z,4.45
2023-09-04T06:15:44.972Z,4.45
2023-09-04T06:20:48.211Z,4.25
2023-09-04T06:25:49.839Z,4.20
2023-09-04T06:30:51.597Z,4.00
2023-09-04T06:35:53.610Z,3.85
2023-09-04T06:40:58.970Z,4.32
2023-09-04T06:46:03.148Z,3.70
2023-09-04T06:51:04.932Z,3.50
2023-09-04T06:56:06.579Z,3.38
2023-09-04T07:01:08.259Z,2.70
2023-09-04T07:06:09.891Z,2.58
2023-09-04T07:11:11.548Z,2.50
2023-09-04T07:16:23.215Z,3.20
2023-09-04T07:21:34.704Z,2.83
2023-09-04T07:26:36.352Z,2.30
2023-09-04T07:31:38.221Z,2.00
2023-09-04T07:36:39.882Z,1.70
2023-09-04T07:41:41.505Z,2.15
2023-09-04T07:46:43.086Z,2.35
2023-09-04T07:51:44.768Z,2.45
2023-09-04T07:56:46.365Z,2.25
2023-09-04T08:01:48.075Z,2.45
2023-09-04T08:06:49.714Z,2.55
2023-09-04T08:11:51.820Z,2.05
2023-09-04T08:16:53.449Z,2.20
2023-09-04T08:21:55.081Z,2.10
2023-09-04T08:26:56.950Z,2.70
2023-09-04T08:31:58.536Z,2.20
2023-09-04T08:37:00.134Z,2.40
2023-09-04T08:42:05.240Z,2.40
2023-09-04T08:47:09.186Z,2.53
2023-09-04T08:52:11.156Z,2.50
2023-09-04T08:57:13.393Z,1.95
2023-09-04T09:02:17.189Z,2.55
2023-09-04T09:07:21.498Z,2.30
2023-09-04T09:12:23.109Z,2.53
2023-09-04T09:17:24.747Z,1.98
2023-09-04T09:22:26.640Z,2.45
2023-09-04T09:27:33.295Z,1.73
2023-09-04T09:32:34.930Z,2.10
2023-09-04T09:37:36.854Z,2.15
2023-09-04T09:42:38.566Z,2.03
2023-09-04T09:47:40.587Z,2.10
2023-09-04T09:53:04.430Z,2.17
2023-09-04T09:58:08.093Z,2.22
2023-09-04T10:03:10.026Z,1.98
2023-09-04T10:08:14.282Z,2.00
2023-09-04T10:13:23.616Z,1.63
2023-09-04T10:18:31.232Z,2.20
2023-09-04T10:23:45.440Z,1.83
2023-09-04T10:28:59.041Z,1.75
2023-09-04T10:34:02.099Z,1.65
2023-09-04T10:39:04.964Z,2.17
2023-09-04T10:44:06.767Z,1.70
2023-09-04T10:49:08.585Z,1.98
2023-09-04T10:54:19.339Z,2.00
2023-09-04T10:59:21.077Z,2.05
2023-09-04T11:04:48.518Z,2.25
2023-09-04T11:09:54.204Z,1.90
2023-09-04T11:14:56.998Z,1.88
2023-09-04T11:20:01.566Z,1.80
2023-09-04T11:25:03.317Z,2.10
2023-09-04T11:30:05.842Z,2.35
2023-09-04T11:35:16.631Z,1.95
2023-09-04T11:40:18.238Z,1.83
2023-09-04T11:45:19.921Z,1.80
2023-09-04T11:50:21.706Z,1.88
2023-09-04T11:55:25.581Z,2.30
2023-09-04T12:00:27.246Z,1.83
2023-09-04T12:05:29.093Z,2.00
2023-09-04T12:10:33.829Z,1.95
2023-09-04T12:15:35.719Z,1.95
2023-09-04T12:20:40.518Z,2.00
2023-09-04T12:25:45.262Z,1.70
2023-09-04T12:30:51.479Z,2.10
2023-09-04T12:35:58.135Z,1.63
2023-09-04T12:40:59.919Z,1.80
2023-09-04T12:46:02.555Z,2.08
2023-09-04T12:51:04.372Z,2.22
2023-09-04T12:56:07.184Z,1.40
2023-09-04T13:01:08.955Z,2.00
2023-09-04T13:06:10.627Z,1.70
2023-09-04T13:11:12.247Z,1.80
2023-09-04T13:16:13.918Z,1.80
2023-09-04T13:21:15.562Z,1.80
2023-09-04T13:26:19.495Z,1.75
2023-09-04T13:31:21.176Z,1.55
2023-09-04T13:36:22.887Z,1.80
2023-09-04T13:41:24.465Z,2.03
2023-09-04T13:46:26.146Z,1.58
2023-09-04T13:51:27.843Z,1.92
2023-09-04T13:56:29.567Z,1.70
2023-09-04T14:01:31.185Z,1.42
2023-09-04T14:06:32.871Z,1.90
2023-09-04T14:11:35.127Z,1.73
2023-09-04T14:16:36.836Z,1.60
2023-09-04T14:21:39.226Z,1.65
2023-09-04T14:26:41.246Z,1.85
2023-09-04T14:31:42.961Z,1.75
2023-09-04T14:37:02.282Z,1.65
2023-09-04T14:42:06.131Z,1.70
2023-09-04T14:47:07.771Z,1.70
2023-09-04T14:52:09.369Z,1.58
2023-09-04T14:57:11.385Z,1.85
2023-09-04T15:02:13.111Z,1.80
2023-09-04T15:07:14.804Z,1.88
2023-09-04T15:12:16.533Z,1.92
2023-09-04T15:17:18.222Z,1.80
2023-09-04T15:22:19.825Z,2.00
2023-09-04T15:27:21.467Z,1.75
2023-09-04T15:32:23.044Z,1.83
2023-09-04T15:37:25.833Z,1.85
2023-09-04T15:42:27.464Z,1.90
2023-09-04T15:47:32.031Z,1.80
2023-09-04T15:52:33.870Z,1.98
2023-09-04T15:57:35.601Z,1.95
2023-09-04T16:02:37.451Z,1.77
2023-09-04T16:07:39.142Z,1.98
2023-09-04T16:12:40.967Z,1.80
2023-09-04T16:17:42.626Z,2.50
2023-09-04T16:22:44.262Z,2.35
2023-09-04T16:27:45.913Z,2.75
2023-09-04T16:32:47.907Z,3.13
2023-09-04T16:37:49.845Z,2.80
2023-09-04T16:42:51.816Z,2.53
2023-09-04T16:47:53.566Z,2.78
2023-09-04T16:52:56.305Z,3.28
2023-09-04T16:57:57.928Z,2.95
2023-09-04T17:02:59.670Z,4.53
2023-09-04T17:08:02.049Z,3.60
2023-09-04T17:13:03.825Z,2.92
2023-09-04T17:18:05.779Z,2.55
2023-09-04T17:23:08.470Z,2.83
2023-09-04T17:28:10.168Z,2.60
2023-09-04T17:33:11.964Z,2.58
2023-09-04T17:38:13.667Z,2.95
2023-09-04T17:43:15.298Z,3.25
2023-09-04T17:48:16.890Z,2.92
2023-09-04T17:53:18.507Z,3.08
2023-09-04T17:58:20.166Z,3.20
2023-09-04T18:03:22.696Z,3.50
2023-09-04T18:08:25.541Z,3.15
2023-09-04T18:13:27.351Z,3.85
2023-09-04T18:18:28.951Z,4.00
2023-09-04T18:23:30.548Z,3.80
2023-09-04T18:28:32.145Z,3.17
2023-09-04T18:33:33.732Z,3.88
2023-09-04T18:38:35.333Z,3.53
2023-09-04T18:43:37.311Z,3.60
2023-09-04T18:48:38.933Z,3.45
2023-09-04T18:53:41.603Z,3.30
2023-09-04T18:58:43.241Z,3.15
2023-09-04T19:03:44.932Z,3.60
2023-09-04T19:08:46.565Z,3.83
2023-09-04T19:13:48.176Z,3.78
2023-09-04T19:18:54.031Z,3.70
2023-09-04T19:23:55.654Z,3.92
2023-09-04T19:28:57.255Z,3.67
2023-09-04T19:33:58.949Z,4.40
2023-09-04T19:39:00.562Z,4.32
2023-09-04T19:44:02.183Z,4.60
2023-09-04T19:49:03.823Z,4.40
2023-09-04T19:54:05.443Z,4.10
2023-09-04T19:59:07.041Z,4.40
2023-09-04T20:04:09.749Z,4.32
2023-09-04T20:09:11.992Z,4.53
2023-09-04T20:14:13.627Z,4.60
2023-09-04T20:19:15.253Z,4.38
2023-09-04T20:24:16.932Z,4.57
2023-09-04T20:29:19.173Z,4.18
2023-09-04T20:34:20.852Z,3.85
2023-09-04T20:39:22.443Z,4.60
2023-09-04T20:44:24.024Z,4.20
2023-09-04T20:49:25.676Z,4.22
2023-09-04T20:54:27.319Z,4.40
2023-09-04T20:59:28.941Z,3.85
2023-09-04T21:04:30.566Z,4.00
2023-09-04T21:09:32.100Z,4.15
2023-09-04T21:14:52.106Z,3.88
2023-09-04T21:20:12.280Z,3.90
2023-09-04T21:25:32.748Z,3.70
2023-09-04T21:30:52.874Z,4.25
2023-09-04T21:36:12.776Z,4.60
2023-09-04T21:41:32.706Z,4.60
2023-09-04T21:46:53.015Z,4.47
2023-09-04T21:52:13.272Z,4.85
2023-09-04T21:57:33.305Z,4.60
2023-09-04T22:02:53.629Z,4.20
2023-09-04T22:08:13.601Z,4.45
2023-09-04T22:13:33.474Z,4.60
2023-09-04T22:18:54.288Z,4.43
2023-09-04T22:24:14.168Z,4.32
2023-09-04T22:29:34.094Z,4.43
2023-09-04T22:34:54.021Z,5.10
2023-09-04T22:40:14.085Z,5.30
2023-09-04T22:45:33.955Z,5.10
2023-09-04T22:50:54.194Z,5.00
2023-09-04T22:56:14.130Z,5.53
2023-09-04T23:01:34.639Z,5.40
2023-09-04T23:06:55.097Z,5.93
2023-09-04T23:12:15.079Z,6.30
2023-09-04T23:17:35.088Z,6.40
2023-09-04T23:22:37.910Z,6.53
2023-09-04T23:27:39.545Z,5.75
2023-09-04T23:33:02.879Z,6.55
2023-09-04T23:38:07.756Z,6.63
2023-09-04T23:43:28.077Z,7.28
2023-09-04T23:48:30.914Z,6.47
2023-09-04T23:53:32.537Z,7.38
2023-09-04T23:58:34.118Z,6.57
